createdAt,value
2022-11-28T00:01:35.532Z,12.27
2022-11-28T00:04:04.885Z,12.18
2022-11-28T00:06:32.899Z,12.13
2022-11-28T00:09:01.260Z,12.32
2022-11-28T00:11:28.824Z,12.02
2022-11-28T00:13:56.468Z,11.80
2022-11-28T00:16:24.695Z,11.02
2022-11-28T00:18:54.199Z,10.98
2022-11-28T00:21:22.924Z,11.77
2022-11-28T00:23:51.394Z,12.13
2022-11-28T00:26:40.018Z,13.27
2022-11-28T00:29:08.681Z,11.25
2022-11-28T00:31:42.958Z,10.77
2022-11-28T00:34:12.999Z,11.80
2022-11-28T00:36:40.780Z,11.73
2022-11-28T00:39:08.366Z,10.57
2022-11-28T00:41:36.096Z,10.02
2022-11-28T00:44:03.737Z,10.73
2022-11-28T00:46:31.377Z,9.35
2022-11-28T00:48:59.678Z,9.95
2022-11-28T00:51:31.141Z,9.10
2022-11-28T00:54:00.853Z,10.40
2022-11-28T00:56:34.918Z,9.45
2022-11-28T00:59:03.154Z,11.02
2022-11-28T01:01:36.675Z,11.70
2022-11-28T01:04:08.095Z,13.70
2022-11-28T01:06:39.078Z,14.77
2022-11-28T01:09:21.683Z,12.50
2022-11-28T01:11:51.507Z,12.52
2022-11-28T01:14:22.039Z,11.88
2022-11-28T01:16:49.870Z,13.30
2022-11-28T01:19:18.158Z,10.80
2022-11-28T01:21:45.803Z,11.65
2022-11-28T01:24:13.428Z,11.38
2022-11-28T01:26:42.422Z,11.23
2022-11-28T01:29:10.228Z,9.95
2022-11-28T01:31:38.086Z,11.20
2022-11-28T01:34:05.646Z,11.02
2022-11-28T01:36:33.244Z,10.70
2022-11-28T01:39:01.075Z,9.15
2022-11-28T01:41:29.088Z,11.13
2022-11-28T01:44:03.508Z,10.38
2022-11-28T01:46:31.692Z,10.18
2022-11-28T01:49:03.830Z,11.07
2022-11-28T01:51:32.715Z,12.25
2022-11-28T01:54:01.079Z,9.15
2022-11-28T01:56:35.112Z,9.18
2022-11-28T01:59:06.959Z,8.25
2022-11-28T02:01:34.749Z,9.57
2022-11-28T02:04:04.363Z,9.07
2022-11-28T02:06:32.560Z,8.80
2022-11-28T02:09:00.162Z,9.05
2022-11-28T02:11:46.573Z,8.85
2022-11-28T02:14:41.716Z,8.60
2022-11-28T02:17:46.858Z,10.38
2022-11-28T02:20:36.024Z,10.05
2022-11-28T02:23:15.244Z,8.47
2022-11-28T02:26:04.162Z,9.07
2022-11-28T02:29:03.769Z,8.60
2022-11-28T02:32:02.224Z,8.75
2022-11-28T02:34:47.286Z,9.15
2022-11-28T02:37:19.650Z,9.70
2022-11-28T02:40:00.620Z,9.45
2022-11-28T02:42:51.390Z,8.98
2022-11-28T02:45:41.751Z,8.93
2022-11-28T02:48:38.132Z,9.32
2022-11-28T02:51:26.363Z,9.50
2022-11-28T02:53:55.833Z,8.10
2022-11-28T02:56:24.801Z,8.35
2022-11-28T02:58:52.903Z,9.90
2022-11-28T03:01:25.763Z,7.90
2022-11-28T03:04:16.450Z,7.65
2022-11-28T03:07:22.476Z,7.93
2022-11-28T03:10:12.323Z,7.78
2022-11-28T03:12:53.169Z,7.88
2022-11-28T03:15:27.868Z,8.13
2022-11-28T03:18:20.063Z,8.13
2022-11-28T03:20:56.982Z,6.93
2022-11-28T03:23:36.584Z,7.20
2022-11-28T03:26:18.399Z,7.53
2022-11-28T03:28:55.346Z,7.35
2022-11-28T03:31:29.296Z,7.90
2022-11-28T03:33:59.608Z,8.20
2022-11-28T03:36:35.493Z,7.50
2022-11-28T03:39:08.906Z,8.23
2022-11-28T03:41:41.869Z,9.25
2022-11-28T03:44:14.929Z,9.27
2022-11-28T03:46:47.351Z,10.07
2022-11-28T03:49:27.346Z,10.52
2022-11-28T03:54:47.655Z,9.45
2022-11-28T03:57:21.536Z,9.25
2022-11-28T03:59:53.965Z,9.73
2022-11-28T04:02:34.279Z,10.05
2022-11-28T04:05:19.263Z,10.88
2022-11-28T04:07:59.529Z,8.55
2022-11-28T04:10:42.621Z,7.25
2022-11-28T04:13:18.813Z,9.00
2022-11-28T04:16:08.185Z,8.70
2022-11-28T04:18:50.475Z,9.05
2022-11-28T04:21:33.385Z,8.45
2022-11-28T04:24:15.302Z,7.95
2022-11-28T04:26:47.833Z,9.07
2022-11-28T04:29:18.507Z,7.28
2022-11-28T04:31:48.350Z,7.35
2022-11-28T04:34:20.384Z,7.63
2022-11-28T04:36:50.048Z,8.52
2022-11-28T04:39:23.847Z,7.50
2022-11-28T04:41:58.909Z,6.72
2022-11-28T04:44:33.723Z,8.10
2022-11-28T04:47:01.353Z,7.43
2022-11-28T04:49:30.396Z,7.47
2022-11-28T04:52:16.258Z,6.73
2022-11-28T04:54:57.256Z,7.00
2022-11-28T04:57:37.645Z,8.70
2022-11-28T05:00:14.675Z,10.13
2022-11-28T05:02:44.388Z,7.93
2022-11-28T05:05:17.803Z,8.55
2022-11-28T05:07:45.523Z,8.27
2022-11-28T05:10:14.823Z,8.85
2022-11-28T05:12:42.871Z,8.23
2022-11-28T05:15:11.378Z,8.20
2022-11-28T05:17:42.171Z,7.18
2022-11-28T05:20:10.542Z,7.45
2022-11-28T05:22:38.006Z,6.47
2022-11-28T05:25:05.893Z,7.28
2022-11-28T05:27:33.359Z,8.65
2022-11-28T05:30:00.894Z,8.15
2022-11-28T05:32:31.937Z,6.13
2022-11-28T05:34:59.607Z,7.40
2022-11-28T05:37:27.116Z,7.18
2022-11-28T05:39:54.724Z,7.05
2022-11-28T05:42:22.434Z,7.28
2022-11-28T05:44:50.463Z,7.88
2022-11-28T05:47:18.522Z,7.90
2022-11-28T05:49:47.371Z,8.63
2022-11-28T05:52:14.948Z,9.20
2022-11-28T05:54:42.407Z,8.18
2022-11-28T05:57:09.942Z,8.73
2022-11-28T05:59:37.998Z,8.98
2022-11-28T06:02:05.547Z,7.72
2022-11-28T06:04:37.058Z,8.73
2022-11-28T06:07:04.671Z,8.43
2022-11-28T06:09:32.156Z,7.95
2022-11-28T06:11:59.751Z,8.15
2022-11-28T06:14:27.252Z,9.25
2022-11-28T06:16:54.829Z,8.30
2022-11-28T06:19:22.432Z,9.25
2022-11-28T06:21:50.878Z,9.07
2022-11-28T06:24:18.520Z,8.65
2022-11-28T06:26:46.592Z,8.40
2022-11-28T06:29:14.549Z,9.07
2022-11-28T06:31:42.037Z,7.68
2022-11-28T06:34:12.896Z,9.23
2022-11-28T06:36:41.148Z,9.10
2022-11-28T06:39:13.385Z,8.73
2022-11-28T06:41:42.119Z,8.48
2022-11-28T06:44:13.874Z,9.23
2022-11-28T06:46:42.594Z,8.65
2022-11-28T06:49:13.740Z,8.95
2022-11-28T06:51:42.658Z,8.82
2022-11-28T06:54:10.348Z,7.82
2022-11-28T06:56:39.769Z,9.15
2022-11-28T06:59:07.474Z,9.93
2022-11-28T07:01:35.648Z,9.50
2022-11-28T07:04:03.254Z,9.38
2022-11-28T07:06:31.024Z,10.68
2022-11-28T07:08:59.538Z,9.98
2022-11-28T07:11:30.035Z,9.48
2022-11-28T07:13:58.860Z,10.02
2022-11-28T07:16:29.095Z,11.07
2022-11-28T07:18:57.563Z,10.07
2022-11-28T07:21:26.399Z,11.10
2022-11-28T07:23:54.497Z,10.07
2022-11-28T07:26:22.494Z,9.63
2022-11-28T07:28:51.221Z,9.07
2022-11-28T07:31:21.460Z,9.55
2022-11-28T07:33:50.800Z,10.35
2022-11-28T07:36:24.816Z,10.65
2022-11-28T07:38:58.891Z,10.13
2022-11-28T07:41:27.469Z,8.93
2022-11-28T07:43:59.805Z,8.15
2022-11-28T07:46:29.334Z,8.55
2022-11-28T07:48:57.614Z,8.52
2022-11-28T07:51:29.338Z,7.60
2022-11-28T07:53:57.295Z,8.52
2022-11-28T07:56:39.579Z,8.75
2022-11-28T07:59:16.496Z,7.82
2022-11-28T08:01:44.248Z,7.97
2022-11-28T08:04:11.957Z,7.35
2022-11-28T08:06:41.802Z,7.82
2022-11-28T08:09:09.520Z,9.02
2022-11-28T08:11:37.171Z,7.85
2022-11-28T08:14:06.659Z,7.18
2022-11-28T08:16:34.698Z,8.15
2022-11-28T08:19:03.151Z,8.15
2022-11-28T08:21:32.690Z,7.55
2022-11-28T08:24:02.416Z,8.52
2022-11-28T08:26:31.916Z,8.13
2022-11-28T08:29:01.192Z,8.75
2022-11-28T08:31:34.969Z,7.57
2022-11-28T08:34:05.312Z,8.27
2022-11-28T08:36:32.882Z,7.47
2022-11-28T08:39:23.886Z,9.48
2022-11-28T08:41:49.813Z,8.05
2022-11-28T08:44:17.334Z,8.90
2022-11-28T08:46:45.088Z,8.63
2022-11-28T08:49:13.113Z,8.27
2022-11-28T08:51:40.672Z,8.35
2022-11-28T08:54:08.394Z,8.43
2022-11-28T08:56:36.056Z,8.23
2022-11-28T08:59:03.816Z,7.53
2022-11-28T09:01:32.109Z,7.85
2022-11-28T09:03:59.735Z,7.72
2022-11-28T09:06:27.344Z,8.52
2022-11-28T09:08:55.467Z,8.25
2022-11-28T09:11:23.498Z,9.23
2022-11-28T09:13:51.466Z,8.45
2022-11-28T09:16:19.230Z,9.45
2022-11-28T09:18:46.986Z,8.82
2022-11-28T09:21:15.675Z,9.23
2022-11-28T09:23:45.068Z,10.18
2022-11-28T09:26:21.025Z,10.35
2022-11-28T09:28:48.822Z,7.68
2022-11-28T09:31:18.450Z,9.55
2022-11-28T09:33:48.427Z,9.45
2022-11-28T09:38:45.741Z,7.45
2022-11-28T09:41:55.097Z,6.93
2022-11-28T09:44:47.885Z,7.55
2022-11-28T09:47:25.753Z,5.95
2022-11-28T09:50:00.135Z,7.65
2022-11-28T09:52:30.716Z,7.55
2022-11-28T09:55:09.895Z,7.82
2022-11-28T09:57:43.638Z,8.13
2022-11-28T10:00:32.958Z,7.63
2022-11-28T10:03:31.228Z,8.88
2022-11-28T10:06:25.610Z,7.22
2022-11-28T10:09:18.298Z,6.63
2022-11-28T10:12:06.928Z,6.22
2022-11-28T10:14:54.706Z,5.88
2022-11-28T10:17:27.958Z,5.97
2022-11-28T10:20:12.322Z,6.60
2022-11-28T10:22:39.790Z,6.72
2022-11-28T10:25:39.431Z,6.97
2022-11-28T10:28:14.998Z,6.50
2022-11-28T10:30:47.784Z,6.13
2022-11-28T10:33:25.334Z,6.15
2022-11-28T10:35:58.265Z,6.13
2022-11-28T10:38:28.342Z,5.28
2022-11-28T10:43:44.960Z,5.80
2022-11-28T10:46:30.184Z,5.83
2022-11-28T10:49:01.065Z,6.47
2022-11-28T10:51:40.420Z,5.60
2022-11-28T10:54:14.100Z,8.57
2022-11-28T10:57:11.794Z,6.80
2022-11-28T10:59:50.956Z,7.35
2022-11-28T11:02:51.949Z,8.20
2022-11-28T11:05:37.932Z,7.90
2022-11-28T11:08:21.632Z,7.00
2022-11-28T11:10:56.365Z,6.72
2022-11-28T11:13:31.739Z,5.28
2022-11-28T11:16:01.190Z,5.50
2022-11-28T11:18:32.349Z,6.22
2022-11-28T11:21:21.807Z,5.22
2022-11-28T11:23:50.670Z,5.70
2022-11-28T11:26:36.967Z,5.78
2022-11-28T11:29:05.559Z,5.22
2022-11-28T11:31:43.148Z,5.65
2022-11-28T11:34:17.477Z,6.32
2022-11-28T11:36:45.406Z,5.28
2022-11-28T11:39:12.867Z,6.20
2022-11-28T11:41:44.061Z,5.78
2022-11-28T11:44:14.734Z,5.63
2022-11-28T11:46:58.657Z,6.10
2022-11-28T11:49:36.717Z,7.05
2022-11-28T11:52:21.105Z,4.97
2022-11-28T11:55:11.371Z,5.47
2022-11-28T12:00:13.941Z,7.53
2022-11-28T12:03:27.249Z,5.90
2022-11-28T12:06:13.839Z,5.53
2022-11-28T12:09:09.294Z,5.45
2022-11-28T12:11:46.928Z,5.32
2022-11-28T12:14:24.658Z,5.22
2022-11-28T12:17:57.412Z,5.70
2022-11-28T12:20:33.006Z,4.95
2022-11-28T12:23:37.407Z,5.25
2022-11-28T12:26:15.774Z,4.40
2022-11-28T12:28:47.110Z,6.55
2022-11-28T12:31:42.334Z,5.07
2022-11-28T12:34:27.549Z,5.32
2022-11-28T12:36:57.854Z,4.95
2022-11-28T12:39:52.319Z,5.82
2022-11-28T12:43:06.399Z,4.50
2022-11-28T12:45:47.493Z,4.38
2022-11-28T12:48:44.625Z,4.07
2022-11-28T12:51:33.555Z,3.67
2022-11-28T12:54:15.295Z,4.28
2022-11-28T12:57:12.949Z,3.97
2022-11-28T13:00:08.626Z,4.80
2022-11-28T13:02:45.670Z,3.10
2022-11-28T13:05:16.531Z,3.40
2022-11-28T13:07:54.608Z,4.63
2022-11-28T13:10:53.714Z,4.22
2022-11-28T13:13:32.580Z,3.95
2022-11-28T13:16:07.917Z,3.78
2022-11-28T13:19:08.315Z,5.60
2022-11-28T13:22:10.119Z,5.10
2022-11-28T13:25:19.826Z,4.30
2022-11-28T13:28:04.030Z,4.57
2022-11-28T13:30:40.105Z,4.53
2022-11-28T13:33:40.494Z,4.20
2022-11-28T13:38:35.321Z,4.00
2022-11-28T13:39:26.319Z,4.35
2022-11-28T13:42:43.865Z,4.30
2022-11-28T13:45:31.923Z,3.78
2022-11-28T13:48:20.532Z,4.40
2022-11-28T13:51:28.724Z,4.20
2022-11-28T13:54:17.456Z,3.47
2022-11-28T13:57:21.506Z,3.83
2022-11-28T13:59:52.301Z,3.80
2022-11-28T14:02:36.592Z,4.03
2022-11-28T14:05:06.219Z,3.75
2022-11-28T14:07:35.209Z,4.07
2022-11-28T14:10:27.590Z,4.72
2022-11-28T14:13:28.489Z,4.40
2022-11-28T14:16:07.738Z,3.17
2022-11-28T14:19:13.609Z,3.72
2022-11-28T14:21:53.190Z,3.80
2022-11-28T14:24:59.560Z,3.95
2022-11-28T14:27:34.413Z,3.28
2022-11-28T14:30:02.643Z,4.32
2022-11-28T14:32:38.368Z,3.37
2022-11-28T14:35:15.751Z,3.90
2022-11-28T14:37:54.279Z,4.03
2022-11-28T14:41:15.240Z,4.57
2022-11-28T14:43:46.584Z,3.97
2022-11-28T14:46:25.148Z,4.22
2022-11-28T14:49:00.090Z,4.88
2022-11-28T14:52:00.139Z,4.78
2022-11-28T14:54:43.323Z,4.95
2022-11-28T14:57:38.063Z,6.22
2022-11-28T15:00:15.344Z,5.40
2022-11-28T15:02:58.843Z,5.85
2022-11-28T15:05:31.906Z,11.07
2022-11-28T15:08:36.636Z,11.45
2022-11-28T15:11:20.972Z,9.45
2022-11-28T15:13:48.510Z,7.53
2022-11-28T15:16:17.598Z,7.28
2022-11-28T15:18:58.141Z,8.30
2022-11-28T15:21:25.740Z,7.38
2022-11-28T15:23:54.470Z,8.80
2022-11-28T15:26:28.447Z,7.47
2022-11-28T15:29:22.841Z,8.27
2022-11-28T15:31:53.195Z,9.57
2022-11-28T15:34:26.547Z,9.68
2022-11-28T15:37:00.689Z,9.55
2022-11-28T15:39:39.869Z,10.45
2022-11-28T15:42:26.603Z,8.60
2022-11-28T15:45:07.758Z,8.13
2022-11-28T15:47:35.513Z,8.68
2022-11-28T15:50:22.040Z,7.43
2022-11-28T15:52:58.128Z,7.95
2022-11-28T15:55:32.052Z,8.55
2022-11-28T15:58:23.520Z,8.68
2022-11-28T16:01:02.572Z,9.20
2022-11-28T16:03:36.632Z,8.45
2022-11-28T16:06:05.864Z,8.35
2022-11-28T16:08:37.270Z,7.90
2022-11-28T16:11:07.296Z,8.10
2022-11-28T16:16:14.729Z,8.68
2022-11-28T16:19:25.456Z,7.32
2022-11-28T16:21:57.126Z,10.68
2022-11-28T16:24:35.342Z,10.57
2022-11-28T16:27:06.424Z,8.88
2022-11-28T16:29:36.236Z,9.30
2022-11-28T16:32:26.299Z,10.23
2022-11-28T16:34:55.644Z,10.68
2022-11-28T16:37:31.442Z,10.50
2022-11-28T16:40:05.464Z,12.30
2022-11-28T16:42:34.869Z,11.63
2022-11-28T16:45:22.057Z,12.38
2022-11-28T16:48:14.900Z,9.57
2022-11-28T16:51:02.563Z,11.60
2022-11-28T16:53:51.294Z,11.02
2022-11-28T16:59:11.627Z,11.80
2022-11-28T17:01:40.586Z,11.45
2022-11-28T17:04:20.357Z,14.80
2022-11-28T17:06:48.349Z,15.07
2022-11-28T17:09:16.492Z,15.32
2022-11-28T17:11:51.004Z,15.85
2022-11-28T17:14:18.756Z,15.02
2022-11-28T17:16:46.439Z,17.45
2022-11-28T17:19:14.035Z,14.80
2022-11-28T17:21:50.645Z,15.85
2022-11-28T17:24:32.130Z,16.23
2022-11-28T17:26:59.773Z,15.75
2022-11-28T17:29:28.651Z,17.30
2022-11-28T17:31:58.919Z,17.42
2022-11-28T17:34:31.383Z,17.17
2022-11-28T17:37:03.282Z,16.88
2022-11-28T17:39:31.171Z,16.92
2022-11-28T17:41:59.219Z,16.92
2022-11-28T17:44:29.755Z,17.23
2022-11-28T17:46:58.427Z,16.48
2022-11-28T17:49:26.504Z,17.40
2022-11-28T17:51:55.179Z,20.77
2022-11-28T17:56:54.024Z,19.08
2022-11-28T17:59:23.736Z,18.10
2022-11-28T18:01:51.555Z,18.52
2022-11-28T18:04:24.436Z,18.67
2022-11-28T18:06:53.350Z,22.40
2022-11-28T18:09:21.166Z,21.15
2022-11-28T18:11:48.974Z,20.33
2022-11-28T18:14:19.617Z,20.38
2022-11-28T18:16:48.438Z,21.75
2022-11-28T18:19:19.087Z,21.08
2022-11-28T18:21:46.625Z,21.20
2022-11-28T18:24:14.629Z,22.30
2022-11-28T18:26:42.543Z,27.13
2022-11-28T18:29:10.748Z,23.63
2022-11-28T18:31:38.709Z,21.88
2022-11-28T18:34:09.745Z,25.85
2022-11-28T18:36:38.985Z,22.30
2022-11-28T18:39:11.359Z,22.75
2022-11-28T18:41:42.730Z,21.30
2022-11-28T18:44:11.531Z,21.75
2022-11-28T18:46:39.884Z,21.00
2022-11-28T18:49:08.395Z,19.90
2022-11-28T18:51:36.771Z,21.35
2022-11-28T18:54:05.664Z,22.80
2022-11-28T18:56:35.307Z,21.23
2022-11-28T18:59:03.346Z,20.27
2022-11-28T19:01:33.697Z,19.77
2022-11-28T19:04:05.323Z,18.85
2022-11-28T19:06:38.769Z,19.23
2022-11-28T19:09:12.836Z,16.98
2022-11-28T19:11:41.566Z,25.50
2022-11-28T19:14:14.636Z,22.00
2022-11-28T19:16:43.151Z,18.15
2022-11-28T19:19:15.329Z,20.60
2022-11-28T19:21:43.299Z,21.08
2022-11-28T19:24:14.032Z,20.20
2022-11-28T19:26:41.790Z,20.00
2022-11-28T19:29:10.374Z,22.55
2022-11-28T19:31:40.514Z,21.25
2022-11-28T19:34:12.711Z,20.63
2022-11-28T19:36:43.050Z,21.70
2022-11-28T19:39:17.094Z,20.42
2022-11-28T19:41:45.685Z,19.52
2022-11-28T19:44:15.019Z,18.90
2022-11-28T19:46:43.445Z,17.33
2022-11-28T19:49:20.094Z,20.60
2022-11-28T19:51:50.177Z,18.10
2022-11-28T19:54:21.450Z,20.25
2022-11-28T19:56:50.005Z,22.00
2022-11-28T19:59:19.346Z,25.45
2022-11-28T20:01:49.990Z,25.83
2022-11-28T20:04:18.027Z,24.92
2022-11-28T20:06:45.723Z,26.75
2022-11-28T20:09:13.956Z,23.95
2022-11-28T20:11:43.729Z,23.70
2022-11-28T20:14:17.911Z,21.75
2022-11-28T20:16:46.575Z,21.77
2022-11-28T20:19:16.111Z,20.35
2022-11-28T20:21:46.310Z,20.95
2022-11-28T20:24:15.480Z,24.15
2022-11-28T20:26:44.005Z,24.10
2022-11-28T20:29:16.207Z,21.20
2022-11-28T20:31:45.995Z,22.83
2022-11-28T20:34:17.702Z,23.27
2022-11-28T20:36:50.823Z,20.40
2022-11-28T20:39:19.906Z,19.63
2022-11-28T20:41:47.582Z,22.90
2022-11-28T20:44:15.323Z,19.95
2022-11-28T20:46:44.074Z,24.55
2022-11-28T20:49:13.104Z,22.42
2022-11-28T20:51:43.746Z,26.60
2022-11-28T20:54:13.347Z,23.42
2022-11-28T20:57:05.494Z,25.20
2022-11-28T20:59:29.717Z,25.77
2022-11-28T21:01:57.275Z,25.90
2022-11-28T21:04:24.830Z,22.70
2022-11-28T21:06:52.443Z,22.10
2022-11-28T21:09:20.644Z,22.70
2022-11-28T21:11:58.509Z,22.13
2022-11-28T21:14:27.975Z,24.08
2022-11-28T21:16:56.534Z,30.23
2022-11-28T21:19:24.315Z,24.88
2022-11-28T21:21:51.899Z,30.65
2022-11-28T21:24:19.490Z,32.08
2022-11-28T21:26:52.927Z,23.15
2022-11-28T21:29:23.617Z,27.85
2022-11-28T21:31:54.167Z,27.15
2022-11-28T21:34:22.759Z,24.17
2022-11-28T21:36:50.544Z,22.75
2022-11-28T21:39:20.012Z,23.52
2022-11-28T21:41:48.865Z,24.52
2022-11-28T21:44:16.682Z,22.40
2022-11-28T21:46:44.280Z,22.55
2022-11-28T21:49:13.119Z,23.10
2022-11-28T21:51:41.005Z,21.80
2022-11-28T21:54:11.423Z,22.33
2022-11-28T21:56:39.161Z,19.55
2022-11-28T21:59:06.933Z,23.45
2022-11-28T22:01:35.157Z,21.40
2022-11-28T22:04:04.522Z,22.05
2022-11-28T22:06:32.394Z,18.45
2022-11-28T22:11:50.183Z,22.30
2022-11-28T22:14:17.952Z,21.88
2022-11-28T22:16:45.608Z,22.17
2022-11-28T22:19:13.424Z,21.13
2022-11-28T22:21:53.409Z,18.88
2022-11-28T22:24:23.800Z,18.77
2022-11-28T22:26:51.437Z,18.45
2022-11-28T22:29:19.518Z,17.88
2022-11-28T22:31:47.321Z,19.50
2022-11-28T22:34:15.386Z,19.73
2022-11-28T22:36:43.009Z,17.30
2022-11-28T22:39:11.668Z,18.23
2022-11-28T22:41:40.089Z,18.98
2022-11-28T22:44:10.029Z,23.30
2022-11-28T22:46:38.129Z,22.95
2022-11-28T22:49:07.012Z,17.73
2022-11-28T22:51:35.632Z,15.90
2022-11-28T22:54:04.928Z,19.98
2022-11-28T22:56:34.631Z,16.73
2022-11-28T22:59:04.875Z,17.63
2022-11-28T23:01:34.509Z,14.77
2022-11-28T23:04:02.851Z,15.10
2022-11-28T23:06:35.882Z,15.00
2022-11-28T23:09:08.407Z,14.38
2022-11-28T23:11:38.736Z,15.73
2022-11-28T23:14:06.549Z,15.35
2022-11-28T23:16:39.778Z,15.30
2022-11-28T23:19:17.841Z,15.00
2022-11-28T23:21:48.034Z,13.85
2022-11-28T23:24:19.613Z,15.38
2022-11-28T23:26:48.615Z,14.48
2022-11-28T23:29:16.785Z,15.02
2022-11-28T23:31:47.049Z,13.23
2022-11-28T23:34:16.274Z,13.57
2022-11-28T23:36:46.386Z,14.73
2022-11-28T23:39:20.283Z,13.65
2022-11-28T23:41:47.882Z,13.85
2022-11-28T23:44:16.824Z,12.70
2022-11-28T23:46:44.928Z,12.63
2022-11-28T23:49:13.056Z,13.73
2022-11-28T23:51:41.156Z,14.48
2022-11-28T23:54:09.913Z,12.15
2022-11-28T23:56:39.050Z,12.18
2022-11-28T23:59:09.084Z,14.00
